Time;durP1;ratioP1;P1;durP2;ratioP2;P2;SDS_P1;SDS_P2;PMS_P1;PMS_P2;Temp;Humidity;BMP_temperature;BMP_pressure;BME280_temperature;BME280_humidity;BME280_pressure;Samples;Min_cycle;Max_cycle;Signal;HPM_P1;HPM_P2
2023/01/27 00:00:42;;;;;;;5.47;1.63;;;;;;;3.46;75.72;101725.44;5024773;28;20061;-48
2023/01/27 00:03:12;;;;;;;6.63;1.60;;;;;;;3.43;75.73;101722.69;5025208;28;20211;-45
2023/01/27 00:05:39;;;;;;;2.17;1.30;;;;;;;3.41;75.72;101725.19;5026281;28;20120;-46
2023/01/27 00:08:05;;;;;;;2.47;0.93;;;;;;;3.42;75.97;101729.53;5023935;28;20099;-48
2023/01/27 00:10:32;;;;;;;1.75;1.02;;;;;;;3.37;75.53;101730.06;5022104;28;20151;-47
2023/01/27 00:13:26;;;;;;;2.65;1.17;;;;;;;3.34;76.21;101726.53;5019542;28;20049;-47
2023/01/27 00:15:45;;;;;;;1.75;1.20;;;;;;;3.23;76.16;101735.31;5018720;28;20053;-46
2023/01/27 00:18:13;;;;;;;4.75;1.38;;;;;;;3.24;75.65;101731.94;5023414;28;20845;-48
2023/01/27 00:26:15;;;;;;;3.90;1.63;;;;;;;3.11;78.04;101720.19;5022789;28;20065;-46
2023/01/27 00:28:44;;;;;;;2.65;1.10;;;;;;;3.19;77.68;101729.16;5025292;28;20124;-48
2023/01/27 00:34:00;;;;;;;16.05;1.90;;;;;;;3.31;77.33;101731.47;5024589;28;20593;-48
2023/01/27 00:36:28;;;;;;;5.15;1.83;;;;;;;3.36;76.99;101720.59;5022813;28;20060;-46
2023/01/27 00:38:56;;;;;;;2.33;1.23;;;;;;;3.33;77.41;101714.53;5025788;28;20081;-47
2023/01/27 00:41:22;;;;;;;3.40;0.95;;;;;;;3.31;78.70;101713.56;5024556;28;20052;-46
2023/01/27 00:43:52;;;;;;;4.78;1.88;;;;;;;3.32;78.48;101715.31;5024952;28;20041;-45
2023/01/27 00:46:21;;;;;;;3.03;1.33;;;;;;;3.32;77.90;101715.31;5002282;28;20045;-45
2023/01/27 00:48:48;;;;;;;2.88;1.23;;;;;;;3.27;78.96;101710.78;5021230;28;20057;-46
2023/01/27 00:51:16;;;;;;;2.53;1.20;;;;;;;3.33;78.83;101717.09;5013961;28;20833;-47
2023/01/27 00:53:43;;;;;;;6.85;2.17;;;;;;;3.34;78.98;101708.59;5018500;28;20056;-47
2023/01/27 00:56:10;;;;;;;4.60;1.75;;;;;;;3.35;78.07;101714.63;5017470;28;20436;-46
2023/01/27 00:58:38;;;;;;;3.92;2.10;;;;;;;3.34;78.34;101710.28;5018640;28;20080;-46
2023/01/27 01:01:07;;;;;;;6.18;1.50;;;;;;;3.34;78.48;101713.72;5018281;28;20072;-46
2023/01/27 01:03:35;;;;;;;3.70;1.95;;;;;;;3.40;78.37;101717.41;5016461;28;20140;-46
2023/01/27 01:06:05;;;;;;;6.72;2.58;;;;;;;3.40;78.79;101707.16;5016301;28;20077;-47
2023/01/27 01:08:33;;;;;;;4.75;1.77;;;;;;;3.37;78.50;101709.59;4998671;28;20561;-48
2023/01/27 01:11:00;;;;;;;3.60;1.60;;;;;;;3.36;78.71;101702.69;4993527;28;20054;-46
2023/01/27 01:13:27;;;;;;;8.95;1.73;;;;;;;3.31;78.96;101703.31;4999221;28;20044;-47
2023/01/27 01:15:55;;;;;;;7.97;2.03;;;;;;;3.37;79.21;101701.91;5000865;28;20081;-48
2023/01/27 01:18:22;;;;;;;4.75;2.20;;;;;;;3.33;79.00;101696.59;5000805;28;20129;-48
2023/01/27 01:20:49;;;;;;;2.88;1.40;;;;;;;3.34;79.43;101693.25;4998965;28;20498;-45
2023/01/27 01:23:15;;;;;;;3.13;1.70;;;;;;;3.30;79.51;101691.31;4996102;28;20058;-46
2023/01/27 01:25:42;;;;;;;1.70;0.88;;;;;;;3.34;79.06;101700.91;5002187;28;20571;-47
2023/01/27 01:28:10;;;;;;;7.45;1.98;;;;;;;3.32;79.70;101710.19;5001634;28;20124;-46
2023/01/27 01:30:37;;;;;;;3.42;1.38;;;;;;;3.31;79.78;101698.19;5001522;28;20050;-46
2023/01/27 01:33:04;;;;;;;4.07;1.85;;;;;;;3.37;79.48;101689.94;5003081;28;20419;-49
2023/01/27 01:35:31;;;;;;;6.88;2.22;;;;;;;3.37;78.95;101701.91;4997234;28;20048;-47
2023/01/27 01:37:57;;;;;;;4.22;2.05;;;;;;;3.38;78.48;101708.78;5000529;28;20138;-47
2023/01/27 01:40:24;;;;;;;5.53;2.08;;;;;;;3.37;78.69;101710.44;5001300;28;20061;-47
2023/01/27 01:42:54;;;;;;;4.57;2.67;;;;;;;3.42;79.33;101703.00;5002610;28;20094;-45
2023/01/27 01:45:45;;;;;;;3.67;1.80;;;;;;;3.41;79.18;101708.94;4999939;28;20058;-45
2023/01/27 01:50:56;;;;;;;8.32;4.22;;;;;;;3.50;78.47;101704.31;5055365;28;20399;-46
2023/01/27 01:53:31;;;;;;;7.63;4.15;;;;;;;3.47;79.34;101699.00;5008023;28;20085;-47
2023/01/27 01:56:05;;;;;;;7.85;3.92;;;;;;;3.49;78.95;101702.53;5011386;28;20049;-46
2023/01/27 01:58:33;;;;;;;7.15;4.00;;;;;;;3.52;78.69;101704.38;5003936;28;20077;-47
2023/01/27 02:01:02;;;;;;;5.25;2.10;;;;;;;3.53;79.31;101701.00;5000854;28;20472;-49
2023/01/27 02:03:30;;;;;;;9.20;3.95;;;;;;;3.53;78.89;101699.34;5007614;28;20493;-45
2023/01/27 02:05:57;;;;;;;6.18;3.40;;;;;;;3.53;79.28;101693.31;5005859;28;20134;-46
2023/01/27 02:08:29;;;;;;;7.78;4.10;;;;;;;3.51;79.38;101695.81;5005925;28;20131;-46
2023/01/27 02:10:57;;;;;;;8.93;4.57;;;;;;;3.54;79.07;101682.28;5004078;28;20084;-46
2023/01/27 02:13:23;;;;;;;9.25;4.20;;;;;;;3.53;79.09;101686.53;5005458;28;20092;-45
2023/01/27 02:15:53;;;;;;;5.72;3.92;;;;;;;3.56;78.96;101696.06;5006957;28;20050;-46
2023/01/27 02:18:20;;;;;;;11.50;5.10;;;;;;;3.59;78.52;101699.66;5005462;28;20076;-47
2023/01/27 02:20:50;;;;;;;7.90;3.78;;;;;;;3.58;79.05;101695.34;5003408;28;20061;-46
2023/01/27 02:26:04;;;;;;;6.63;2.03;;;;;;;3.65;78.60;101698.22;5029775;27;20410;-45
2023/01/27 02:28:31;;;;;;;9.25;3.55;;;;;;;3.64;78.84;101691.34;5015014;28;20488;-48
2023/01/27 02:30:58;;;;;;;7.43;3.60;;;;;;;3.64;79.08;101694.78;5014444;28;20567;-46
2023/01/27 02:33:25;;;;;;;5.63;2.40;;;;;;;3.64;78.89;101692.22;5028197;28;20057;-46
2023/01/27 02:36:13;;;;;;;5.63;2.53;;;;;;;3.62;78.79;101682.69;5014734;28;20057;-51
2023/01/27 02:38:46;;;;;;;3.55;1.50;;;;;;;3.64;79.17;101686.22;5027669;28;20062;-45
2023/01/27 02:41:23;;;;;;;9.52;3.28;;;;;;;3.65;79.42;101690.53;5013273;28;20103;-46
2023/01/27 02:43:50;;;;;;;6.00;2.58;;;;;;;3.63;79.56;101680.22;5013277;28;20057;-45
2023/01/27 02:46:17;;;;;;;4.30;2.42;;;;;;;3.64;79.43;101683.66;5014912;28;20878;-45
2023/01/27 02:48:44;;;;;;;6.95;2.47;;;;;;;3.59;79.54;101684.28;5017607;28;20072;-46
2023/01/27 02:51:11;;;;;;;7.93;2.35;;;;;;;3.62;79.38;101678.47;5016478;28;20490;-47
2023/01/27 02:53:37;;;;;;;8.98;3.63;;;;;;;3.63;79.43;101684.44;5012867;28;20874;-48
2023/01/27 02:56:05;;;;;;;5.40;2.33;;;;;;;3.65;79.79;101677.72;5013727;28;20116;-45
2023/01/27 02:58:31;;;;;;;7.22;2.97;;;;;;;3.64;79.87;101681.09;5032707;28;20041;-47
2023/01/27 03:00:58;;;;;;;11.15;3.72;;;;;;;3.70;79.93;101683.97;5034681;28;20619;-45
2023/01/27 03:03:25;;;;;;;5.30;2.38;;;;;;;3.70;79.99;101671.16;5035204;28;20626;-46
2023/01/27 03:05:52;;;;;;;7.55;3.53;;;;;;;3.71;79.53;101673.78;5035990;28;20081;-45
2023/01/27 03:08:19;;;;;;;7.68;3.00;;;;;;;3.72;80.35;101674.69;5031600;28;20048;-47
2023/01/27 03:10:54;;;;;;;6.30;3.00;;;;;;;3.73;79.78;101666.19;5032009;28;20417;-47
2023/01/27 03:13:22;;;;;;;6.65;3.08;;;;;;;3.74;80.65;101662.81;5032223;28;20088;-46
2023/01/27 03:18:39;;;;;;;8.55;2.10;;;;;;;3.75;80.70;101668.84;5033805;28;20552;-45
2023/01/27 03:21:06;;;;;;;5.57;2.28;;;;;;;3.78;80.31;101662.16;5034698;28;20507;-47
2023/01/27 03:23:33;;;;;;;9.80;3.10;;;;;;;3.81;80.08;101664.00;5038220;28;20095;-46
2023/01/27 03:26:04;;;;;;;8.18;3.60;;;;;;;3.82;80.31;101658.97;5037766;28;20500;-46
2023/01/27 03:28:31;;;;;;;8.43;2.97;;;;;;;3.82;80.16;101660.66;5033180;28;20049;-46
2023/01/27 03:31:00;;;;;;;6.78;2.58;;;;;;;3.82;79.94;101670.91;5030056;28;20509;-46
2023/01/27 03:33:28;;;;;;;7.28;3.35;;;;;;;3.83;80.47;101668.44;5039348;28;20546;-45
2023/01/27 03:47:01;;;;;;;8.43;3.80;;;;;;;3.88;79.90;101660.09;5044650;28;20072;-46
2023/01/27 03:49:28;;;;;;;14.43;4.60;;;;;;;3.89;80.53;101666.97;5045317;28;20045;-46
2023/01/27 03:51:54;;;;;;;8.65;3.03;;;;;;;3.88;80.81;101665.22;5040794;28;20611;-47
2023/01/27 03:54:21;;;;;;;13.43;3.63;;;;;;;3.90;80.80;101668.72;5035770;28;20180;-46
2023/01/27 03:56:47;;;;;;;9.18;3.33;;;;;;;3.91;80.75;101666.25;5016214;28;20101;-46
2023/01/27 03:59:14;;;;;;;9.57;3.25;;;;;;;3.93;80.58;101663.75;5018028;28;20049;-47
2023/01/27 04:01:42;;;;;;;11.27;4.07;;;;;;;3.94;80.47;101661.28;5017993;28;20528;-46
2023/01/27 04:06:59;;;;;;;11.20;4.28;;;;;;;3.94;80.64;101666.41;5027449;28;20099;-46
2023/01/27 04:09:28;;;;;;;9.63;3.65;;;;;;;3.95;80.70;101662.16;5014682;28;20053;-46
2023/01/27 04:11:57;;;;;;;6.82;3.00;;;;;;;3.95;80.80;101670.72;5013065;28;20080;-49
2023/01/27 04:14:33;;;;;;;12.88;3.38;;;;;;;3.97;80.66;101665.66;5021080;28;20103;-46
2023/01/27 04:17:03;;;;;;;10.20;3.30;;;;;;;3.97;80.51;101661.44;5037118;28;20049;-47
2023/01/27 04:19:30;;;;;;;8.23;3.47;;;;;;;3.97;80.78;101660.53;5040439;28;20057;-49
2023/01/27 04:21:57;;;;;;;10.45;3.90;;;;;;;3.95;81.05;101651.91;5036369;28;20609;-45
2023/01/27 04:24:24;;;;;;;8.57;2.55;;;;;;;3.95;80.53;101659.59;5036474;28;20048;-46
2023/01/27 04:29:31;;;;;;;10.93;5.10;;;;;;;3.95;81.12;101657.03;4998236;27;20426;-48
2023/01/27 04:31:58;;;;;;;9.60;4.82;;;;;;;3.97;81.21;101650.28;4991410;28;20054;-48
2023/01/27 04:34:25;;;;;;;6.15;3.70;;;;;;;3.92;80.84;101652.63;4989581;28;20073;-47
2023/01/27 04:36:52;;;;;;;7.10;4.55;;;;;;;3.95;81.15;101647.66;4993644;28;20086;-47
2023/01/27 04:39:19;;;;;;;9.98;4.85;;;;;;;3.98;80.69;101652.03;4983330;28;20051;-48
2023/01/27 04:41:47;;;;;;;9.48;4.93;;;;;;;3.96;81.42;101651.09;4986375;28;20142;-50
2023/01/27 04:44:14;;;;;;;12.40;4.95;;;;;;;3.96;81.12;101644.28;4991307;28;20046;-49
2023/01/27 04:46:41;;;;;;;8.43;4.85;;;;;;;3.96;81.16;101651.09;4990777;28;20050;-46
2023/01/27 04:49:08;;;;;;;10.43;4.63;;;;;;;3.96;81.00;101661.34;4988737;28;20046;-48
2023/01/27 04:51:34;;;;;;;6.90;4.85;;;;;;;3.97;80.87;101655.41;4984702;28;20074;-48
2023/01/27 04:54:02;;;;;;;10.15;4.97;;;;;;;3.98;80.53;101662.28;4987581;28;20074;-47
2023/01/27 04:56:31;;;;;;;8.35;4.72;;;;;;;4.01;80.78;101661.59;4984384;28;20051;-45
2023/01/27 04:59:00;;;;;;;8.88;4.13;;;;;;;4.01;80.96;101659.03;4982900;28;20042;-48
2023/01/27 05:01:27;;;;;;;7.63;3.95;;;;;;;4.02;80.72;101658.22;4989837;28;20046;-50
2023/01/27 05:03:54;;;;;;;10.27;5.32;;;;;;;3.99;81.09;101658.97;4985187;28;20046;-48
2023/01/27 05:06:22;;;;;;;8.32;4.30;;;;;;;4.01;80.45;101659.03;4987878;28;20081;-46
2023/01/27 05:08:49;;;;;;;9.27;4.25;;;;;;;4.01;80.61;101659.91;4981958;28;20046;-47
2023/01/27 05:11:17;;;;;;;9.00;4.70;;;;;;;4.02;81.05;101661.66;4983471;28;20705;-47
2023/01/27 05:13:44;;;;;;;10.00;4.82;;;;;;;4.02;80.13;101663.34;4976451;28;20538;-46
2023/01/27 05:16:13;;;;;;;11.00;3.28;;;;;;;4.03;80.87;101658.31;4982238;28;20662;-47
2023/01/27 05:18:41;;;;;;;10.63;5.43;;;;;;;4.03;80.32;101658.31;4991035;28;20204;-46
2023/01/27 05:21:12;;;;;;;8.40;4.10;;;;;;;4.01;80.55;101657.34;4982415;28;20053;-48
2023/01/27 05:23:39;;;;;;;8.85;3.28;;;;;;;4.03;80.79;101659.97;4986447;28;20457;-47
2023/01/27 05:28:44;;;;;;;8.43;2.95;;;;;;;4.03;80.53;101671.13;5054712;27;20418;-47
2023/01/27 05:33:49;;;;;;;12.20;4.10;;;;;;;4.04;80.33;101667.75;5043421;28;20402;-45
2023/01/27 05:36:18;;;;;;;10.75;3.80;;;;;;;4.05;80.34;101671.19;4991831;28;20053;-47
2023/01/27 05:38:45;;;;;;;14.63;3.58;;;;;;;4.04;80.15;101667.75;5029713;28;20038;-45
2023/01/27 05:41:13;;;;;;;9.50;3.58;;;;;;;4.04;80.11;101672.88;5007115;28;20081;-47
2023/01/27 05:43:42;;;;;;;8.63;3.03;;;;;;;4.02;80.15;101674.47;4991411;28;20105;-45
2023/01/27 05:46:16;;;;;;;11.13;3.83;;;;;;;4.03;79.71;101671.13;4991151;28;20051;-48
2023/01/27 05:48:45;;;;;;;8.65;3.65;;;;;;;4.04;79.67;101672.88;4982533;28;20050;-47
2023/01/27 05:51:13;;;;;;;8.77;3.22;;;;;;;4.04;80.27;101669.41;4970299;28;20082;-46
2023/01/27 05:53:41;;;;;;;17.50;4.57;;;;;;;4.05;80.16;101669.50;4970968;28;20418;-47
2023/01/27 05:56:10;;;;;;;10.02;4.50;;;;;;;4.06;80.47;101672.97;4989294;28;20497;-46
2023/01/27 05:58:37;;;;;;;15.23;3.63;;;;;;;4.05;79.87;101666.94;4984416;28;20078;-46
2023/01/27 06:01:10;;;;;;;9.25;3.35;;;;;;;4.05;79.92;101673.78;4989393;28;20563;-47
2023/01/27 06:03:38;;;;;;;10.75;3.25;;;;;;;4.04;79.98;101677.09;4990322;28;20296;-48
2023/01/27 06:06:07;;;;;;;18.10;4.40;;;;;;;4.04;79.99;101685.69;4991383;28;20108;-46
2023/01/27 06:08:34;;;;;;;8.98;3.30;;;;;;;4.02;80.32;101684.72;4989335;28;20086;-44
2023/01/27 06:11:01;;;;;;;12.32;4.03;;;;;;;4.02;79.90;101689.00;4990014;28;20051;-46
2023/01/27 06:13:28;;;;;;;11.45;3.70;;;;;;;4.02;80.34;101689.84;4995124;28;20049;-45
2023/01/27 06:15:54;;;;;;;13.20;3.22;;;;;;;4.01;80.01;101685.53;4986249;28;20061;-47
2023/01/27 06:18:22;;;;;;;9.88;3.55;;;;;;;4.00;79.96;101691.47;4992983;28;20078;-47
2023/01/27 06:20:49;;;;;;;11.35;3.53;;;;;;;4.02;79.84;101684.72;4996291;28;20124;-47
2023/01/27 06:23:16;;;;;;;9.73;3.90;;;;;;;4.02;79.80;101684.72;4991651;28;20038;-48
2023/01/27 06:25:45;;;;;;;11.27;4.40;;;;;;;4.02;79.76;101684.72;4988550;28;20145;-45
2023/01/27 06:28:13;;;;;;;12.25;3.70;;;;;;;4.02;79.85;101678.72;4986538;28;20046;-48
2023/01/27 06:30:55;;;;;;;10.23;3.30;;;;;;;4.02;79.76;101682.16;5003241;28;20787;-46
2023/01/27 06:33:22;;;;;;;8.77;3.30;;;;;;;4.03;79.92;101683.94;4990647;28;20049;-47
2023/01/27 06:35:48;;;;;;;7.95;3.10;;;;;;;4.03;80.12;101676.25;4993337;28;20060;-46
2023/01/27 06:38:15;;;;;;;11.75;3.63;;;;;;;4.03;79.97;101681.38;4992490;28;20181;-46
2023/01/27 06:40:42;;;;;;;10.48;2.92;;;;;;;4.04;79.75;101683.13;4983121;28;20129;-46
2023/01/27 06:43:12;;;;;;;9.00;3.38;;;;;;;4.05;79.89;101679.75;4989278;28;20045;-47
2023/01/27 06:45:39;;;;;;;16.27;3.72;;;;;;;4.04;79.86;101683.13;4971905;28;20085;-47
2023/01/27 06:48:07;;;;;;;8.63;3.17;;;;;;;4.03;79.72;101689.06;4978043;28;20685;-46
2023/01/27 06:50:35;;;;;;;9.70;3.25;;;;;;;4.01;79.75;101688.09;4975189;28;20066;-48
2023/01/27 06:53:04;;;;;;;8.40;3.15;;;;;;;4.01;79.72;101682.97;4980995;28;20492;-46
2023/01/27 06:55:31;;;;;;;6.70;2.33;;;;;;;4.00;79.74;101691.47;4972781;28;20449;-48
2023/01/27 06:57:58;;;;;;;10.23;2.78;;;;;;;3.99;80.30;101695.72;4977093;28;20065;-47
2023/01/27 07:00:24;;;;;;;8.20;2.45;;;;;;;3.99;80.05;101684.59;4976784;28;20139;-46
2023/01/27 07:02:54;;;;;;;9.68;2.95;;;;;;;3.96;79.92;101682.72;4976730;28;20549;-46
2023/01/27 07:05:21;;;;;;;6.15;2.28;;;;;;;3.97;79.75;101686.19;4974819;28;20098;-47
2023/01/27 07:07:47;;;;;;;8.23;2.38;;;;;;;3.98;79.46;101682.81;4979614;28;20749;-46
2023/01/27 07:10:14;;;;;;;7.95;2.67;;;;;;;3.99;79.95;101679.47;4971872;28;20078;-47
2023/01/27 07:12:41;;;;;;;8.93;2.70;;;;;;;3.99;79.78;101687.16;4978036;28;20597;-48
2023/01/27 07:15:10;;;;;;;9.52;2.13;;;;;;;3.98;79.63;101682.81;4980071;28;20140;-46
2023/01/27 07:17:36;;;;;;;8.25;3.03;;;;;;;3.99;79.83;101689.72;4976423;28;20066;-47
2023/01/27 07:20:04;;;;;;;6.75;3.08;;;;;;;4.00;79.79;101678.66;4978448;28;20109;-47
2023/01/27 07:22:31;;;;;;;7.43;3.00;;;;;;;4.01;79.89;101688.09;4978447;28;20089;-45
2023/01/27 07:24:58;;;;;;;5.75;2.65;;;;;;;4.02;80.07;101686.44;4977523;28;20085;-50
2023/01/27 07:27:24;;;;;;;8.73;2.03;;;;;;;4.01;79.71;101688.09;4973256;28;20055;-45
2023/01/27 07:29:51;;;;;;;5.40;1.70;;;;;;;4.03;79.64;101691.63;4976188;28;20293;-46
2023/01/27 07:32:18;;;;;;;8.77;2.22;;;;;;;4.03;79.49;101690.75;4973884;28;20046;-46
2023/01/27 07:34:45;;;;;;;8.50;2.25;;;;;;;4.04;79.59;101688.25;4974703;28;20142;-45
2023/01/27 07:37:12;;;;;;;6.85;1.77;;;;;;;4.05;79.28;101700.28;4981438;28;20073;-47
2023/01/27 07:39:39;;;;;;;4.55;1.50;;;;;;;4.06;79.47;101689.19;4978267;28;20120;-48
2023/01/27 07:42:08;;;;;;;7.13;1.95;;;;;;;4.05;79.03;101697.72;4982224;28;20058;-45
2023/01/27 07:44:34;;;;;;;5.35;1.38;;;;;;;4.06;78.83;101702.03;4987873;28;20078;-47
2023/01/27 07:47:01;;;;;;;6.05;1.85;;;;;;;4.07;79.13;101697.78;4985214;28;20146;-47
2023/01/27 07:49:27;;;;;;;7.47;1.38;;;;;;;4.06;78.66;101693.47;4983077;28;20101;-47
2023/01/27 07:51:54;;;;;;;3.78;1.33;;;;;;;4.07;78.94;101708.94;4983411;28;20108;-46
2023/01/27 07:54:21;;;;;;;4.85;1.35;;;;;;;4.05;79.38;101705.41;4982633;28;20081;-47
2023/01/27 07:56:47;;;;;;;6.65;1.90;;;;;;;4.07;78.68;101697.78;4982445;28;20371;-46
2023/01/27 07:59:14;;;;;;;2.67;1.17;;;;;;;4.07;78.80;101702.91;4982967;28;20046;-45
2023/01/27 08:01:42;;;;;;;7.80;2.10;;;;;;;4.07;78.97;101708.03;4986390;28;20054;-45
2023/01/27 08:04:08;;;;;;;6.43;1.13;;;;;;;4.07;79.03;101700.34;4989944;28;20058;-47
2023/01/27 08:06:38;;;;;;;7.00;2.03;;;;;;;4.08;78.77;101699.53;4984369;28;20541;-46
2023/01/27 08:09:05;;;;;;;5.68;2.08;;;;;;;4.07;78.69;101702.91;4985802;28;20050;-46
2023/01/27 08:11:32;;;;;;;6.63;1.73;;;;;;;4.07;78.92;101698.69;4980859;28;20433;-45
2023/01/27 08:13:59;;;;;;;8.75;2.08;;;;;;;4.06;78.60;101696.91;4982814;28;20046;-48
2023/01/27 08:16:25;;;;;;;3.90;1.73;;;;;;;4.06;78.74;101691.75;4980538;28;20060;-46
2023/01/27 08:18:53;;;;;;;8.48;2.30;;;;;;;4.06;79.14;101702.03;4985545;28;20129;-47
2023/01/27 08:21:20;;;;;;;7.13;1.83;;;;;;;4.05;78.76;101710.53;4982359;28;20137;-45
2023/01/27 08:23:47;;;;;;;8.35;2.15;;;;;;;4.06;78.88;101714.84;4982904;28;20208;-45
2023/01/27 08:26:13;;;;;;;6.68;2.10;;;;;;;4.07;78.67;101714.06;4980347;28;20066;-47
2023/01/27 08:28:40;;;;;;;7.28;2.35;;;;;;;4.09;78.14;101722.69;4985238;28;20050;-48
2023/01/27 08:31:11;;;;;;;6.45;1.80;;;;;;;4.09;78.80;101714.16;4982967;28;20047;-48
2023/01/27 08:33:40;;;;;;;6.20;2.33;;;;;;;4.10;78.63;101714.22;4979604;28;20046;-47
2023/01/27 08:36:11;;;;;;;9.05;2.05;;;;;;;4.11;78.32;101726.25;4967811;28;20050;-46
2023/01/27 08:38:37;;;;;;;8.30;2.80;;;;;;;4.13;78.69;101728.88;4992103;28;20561;-48
2023/01/27 08:41:07;;;;;;;7.20;1.80;;;;;;;4.15;78.94;101731.53;4979829;28;20654;-48
2023/01/27 08:43:34;;;;;;;6.35;2.30;;;;;;;4.17;78.89;101735.03;4982453;28;20588;-46
2023/01/27 08:46:01;;;;;;;7.53;3.10;;;;;;;4.19;78.73;101736.00;4986020;28;20088;-45
2023/01/27 08:48:29;;;;;;;4.90;2.03;;;;;;;4.20;78.41;101737.75;4984897;28;20068;-47
2023/01/27 08:50:57;;;;;;;9.85;2.47;;;;;;;4.22;78.22;101728.47;4985938;28;20072;-48
2023/01/27 08:53:27;;;;;;;8.40;2.08;;;;;;;4.24;78.20;101726.84;4984728;28;20118;-48
2023/01/27 08:55:57;;;;;;;8.13;2.88;;;;;;;4.26;77.63;101738.09;4971573;28;20046;-46
2023/01/27 08:58:24;;;;;;;9.18;2.10;;;;;;;4.29;78.01;101735.66;4982080;28;20085;-47
2023/01/27 09:00:50;;;;;;;6.03;1.95;;;;;;;4.33;78.07;101732.44;4980875;28;20137;-47
2023/01/27 09:03:17;;;;;;;6.30;2.33;;;;;;;4.34;78.09;101733.31;4979670;28;20050;-47
2023/01/27 09:05:46;;;;;;;11.13;2.65;;;;;;;4.33;78.09;101737.56;4980948;28;20557;-47
2023/01/27 09:08:13;;;;;;;6.68;2.67;;;;;;;4.36;77.84;101727.47;4977287;28;20058;-46
2023/01/27 09:10:40;;;;;;;9.05;2.20;;;;;;;4.36;78.19;101735.16;4980070;28;20066;-46
2023/01/27 09:13:08;;;;;;;7.70;2.45;;;;;;;4.40;77.64;101737.88;4978052;28;20074;-46
2023/01/27 09:15:35;;;;;;;6.97;2.83;;;;;;;4.39;77.73;101741.25;4974471;28;20104;-45
2023/01/27 09:18:03;;;;;;;6.90;2.35;;;;;;;4.39;77.77;101741.25;4968307;28;20481;-47
2023/01/27 09:20:33;;;;;;;7.88;2.13;;;;;;;4.40;77.78;101743.91;4976870;28;20409;-47
2023/01/27 09:23:00;;;;;;;6.07;2.25;;;;;;;4.43;77.74;101743.19;4972614;28;20067;-46
2023/01/27 09:25:27;;;;;;;9.50;2.50;;;;;;;4.45;77.80;101749.25;4976477;28;20149;-48
2023/01/27 09:27:55;;;;;;;6.43;2.38;;;;;;;4.46;77.49;101745.91;4970837;28;20105;-47
2023/01/27 09:30:23;;;;;;;4.40;1.90;;;;;;;4.48;77.34;101757.09;4971824;28;20070;-47
2023/01/27 09:32:50;;;;;;;5.88;1.90;;;;;;;4.52;77.29;101763.28;4977369;28;20046;-47
2023/01/27 09:35:18;;;;;;;7.32;1.70;;;;;;;4.54;77.17;101767.69;4982690;28;20053;-45
2023/01/27 09:37:53;;;;;;;5.88;2.13;;;;;;;4.55;77.64;101764.31;4971989;28;20050;-46
2023/01/27 09:40:59;;;;;;;5.95;1.60;;;;;;;4.58;77.68;101764.47;4974740;28;20054;-49
2023/01/27 10:07:52;;;;;;;13.38;2.83;;;;;;;4.93;76.19;101776.41;5029707;28;20939;-46
2023/01/27 10:27:30;;;;;;;6.28;3.50;;;;;;;5.01;76.50;101778.50;5051472;28;20406;-46
2023/01/27 10:30:07;;;;;;;5.15;3.40;;;;;;;5.06;75.93;101783.88;5045068;28;20057;-46
2023/01/27 10:38:21;;;;;;;6.13;1.73;;;;;;;5.07;76.79;101771.91;5073611;27;20407;-47
2023/01/27 10:41:05;;;;;;;5.05;1.92;;;;;;;5.08;76.81;101784.84;5041836;28;20077;-47
2023/01/27 10:49:33;;;;;;;8.10;2.60;;;;;;;5.19;76.95;101779.31;5039469;28;20456;-47
2023/01/27 10:52:09;;;;;;;5.28;2.42;;;;;;;5.20;76.39;101779.38;4999781;28;20049;-46
2023/01/27 10:54:52;;;;;;;6.18;3.20;;;;;;;5.22;76.17;101784.59;5003574;28;20068;-48
2023/01/27 10:57:35;;;;;;;11.90;3.10;;;;;;;5.24;76.72;101783.00;5017733;28;20670;-47
2023/01/27 11:05:35;;;;;;;7.00;3.58;;;;;;;5.36;76.09;101783.56;5042820;28;20880;-46
2023/01/27 11:08:07;;;;;;;7.57;4.97;;;;;;;5.38;76.62;101787.06;5005031;28;20042;-46
2023/01/27 11:11:42;;;;;;;6.97;3.90;;;;;;;5.43;76.75;101786.44;4999728;28;20108;-47
2023/01/27 11:13:31;;;;;;;8.05;4.00;;;;;;;5.45;76.33;101787.38;5025232;28;20042;-47
2023/01/27 11:15:58;;;;;;;;;;;;;;;5.42;76.66;101787.22;5002246;28;20073;-48
2023/01/27 11:18:28;;;;;;;9.13;4.22;;;;;;;5.46;75.88;101778.84;4997499;28;19965;-49
2023/01/27 11:21:01;;;;;;;7.47;3.83;;;;;;;5.51;77.07;101787.66;5021129;28;20650;-47
2023/01/27 11:23:47;;;;;;;5.50;2.97;;;;;;;5.48;76.24;101783.28;5001051;28;20065;-46
2023/01/27 11:26:45;;;;;;;7.22;2.42;;;;;;;5.49;76.09;101784.13;4990616;28;20476;-49
2023/01/27 11:29:28;;;;;;;7.03;1.98;;;;;;;5.50;75.79;101773.03;4998679;28;20390;-47
2023/01/27 11:32:17;;;;;;;7.93;3.88;;;;;;;5.54;76.83;101777.50;5000011;28;20057;-47
2023/01/27 11:37:31;;;;;;;9.70;2.70;;;;;;;5.59;75.61;101770.91;5089578;27;20405;-47
2023/01/27 11:39:58;;;;;;;5.97;2.03;;;;;;;5.64;76.59;101769.41;5041638;28;20045;-47
2023/01/27 11:42:31;;;;;;;9.15;2.35;;;;;;;5.66;76.32;101765.22;5041614;28;20136;-47
2023/01/27 11:44:59;;;;;;;10.27;2.78;;;;;;;5.70;76.26;101762.78;5041274;28;20064;-46
2023/01/27 11:47:30;;;;;;;5.60;2.60;;;;;;;5.75;75.66;101753.59;5039475;28;20037;-46
2023/01/27 11:49:59;;;;;;;4.72;1.60;;;;;;;5.76;75.89;101748.53;5038692;28;20597;-49
2023/01/27 11:52:27;;;;;;;7.47;1.98;;;;;;;5.79;75.56;101758.94;5041781;28;20430;-47
2023/01/27 11:57:36;;;;;;;10.40;3.40;;;;;;;5.89;75.89;101747.38;5055690;28;20383;-47
2023/01/27 12:00:20;;;;;;;9.38;3.67;;;;;;;5.92;75.14;101744.91;5052944;28;20103;-48
2023/01/27 12:02:54;;;;;;;5.53;3.17;;;;;;;6.02;74.97;101747.91;5047797;28;20043;-48
2023/01/27 12:05:29;;;;;;;4.13;2.20;;;;;;;6.07;74.98;101743.88;5043017;28;20053;-48
2023/01/27 12:07:59;;;;;;;4.32;1.80;;;;;;;6.13;74.96;101739.00;5046205;28;20141;-46
2023/01/27 12:13:24;;;;;;;7.88;0.82;;;;;;;6.20;74.83;101744.38;5037818;28;20770;-46
2023/01/27 12:16:03;;;;;;;3.97;0.68;;;;;;;6.17;73.80;101735.75;5001048;28;20058;-48
2023/01/27 12:18:32;;;;;;;4.53;1.35;;;;;;;6.22;73.29;101742.78;5000946;28;20490;-49
2023/01/27 12:21:01;;;;;;;7.75;1.13;;;;;;;6.26;73.21;101742.09;5001204;28;20483;-48
2023/01/27 12:23:33;;;;;;;6.82;0.65;;;;;;;6.30;73.12;101733.69;4999575;28;20050;-48
2023/01/27 12:26:10;;;;;;;7.38;1.13;;;;;;;6.30;72.67;101737.16;5001136;28;20042;-47
2023/01/27 12:31:30;;;;;;;8.57;1.13;;;;;;;6.33;72.27;101735.50;5015218;28;20395;-47
2023/01/27 12:34:02;;;;;;;3.95;1.45;;;;;;;6.36;73.36;101723.66;4988958;28;20042;-48
2023/01/27 12:36:37;;;;;;;2.25;0.80;;;;;;;6.32;72.06;101719.19;4987408;28;20096;-48
2023/01/27 12:39:06;;;;;;;2.85;0.47;;;;;;;6.33;71.78;101726.09;4992831;28;20059;-49
2023/01/27 12:41:36;;;;;;;2.22;0.82;;;;;;;6.37;73.32;101717.69;4997304;28;20053;-49
2023/01/27 12:46:53;;;;;;;3.08;0.35;;;;;;;6.39;72.13;101717.75;5027306;27;20406;-49
2023/01/27 12:49:20;;;;;;;4.78;0.50;;;;;;;6.41;71.73;101723.81;4999012;28;20490;-47
2023/01/27 12:51:52;;;;;;;4.20;0.68;;;;;;;6.43;72.32;101717.06;5019023;28;20104;-46
2023/01/27 12:57:03;;;;;;;1.52;0.65;;;;;;;6.43;72.02;101717.91;5094852;27;20383;-47
2023/01/27 12:59:32;;;;;;;9.10;1.10;;;;;;;6.46;72.76;101700.84;5016637;27;20081;-49
2023/01/27 13:04:38;;;;;;;5.43;1.42;;;;;;;6.48;70.41;101701.81;5038659;27;20917;-48
2023/01/27 13:07:14;;;;;;;3.65;1.30;;;;;;;6.51;70.46;101710.53;5028411;28;20072;-46
2023/01/27 13:12:27;;;;;;;6.78;1.98;;;;;;;6.86;68.87;101697.28;5045198;28;20741;-49
2023/01/27 13:15:04;;;;;;;5.13;0.75;;;;;;;6.69;70.84;101700.09;5000063;28;20046;-49
2023/01/27 13:20:29;;;;;;;2.78;1.67;;;;;;;6.67;70.63;101701.75;5053666;27;20412;-49
2023/01/27 13:25:41;;;;;;;1.92;0.50;;;;;;;6.72;70.45;101699.31;5007265;28;20426;-48
2023/01/27 13:28:16;;;;;;;2.50;0.55;;;;;;;6.76;70.65;101695.19;4981464;28;20042;-48
2023/01/27 13:30:49;;;;;;;2.85;0.43;;;;;;;6.79;69.03;101697.91;4979177;28;20051;-48
2023/01/27 13:36:00;;;;;;;2.53;1.85;;;;;;;6.83;69.77;101697.19;5059295;27;20947;-47
2023/01/27 13:41:18;;;;;;;2.50;0.40;;;;;;;6.82;67.88;101700.56;5027214;27;20398;-48
2023/01/27 13:43:54;;;;;;;4.05;0.50;;;;;;;6.79;69.25;101700.47;5016171;28;20549;-49
2023/01/27 13:46:27;;;;;;;8.43;0.88;;;;;;;6.79;68.37;101703.91;5016521;28;20561;-47
2023/01/27 13:48:57;;;;;;;6.38;0.80;;;;;;;6.81;69.47;101697.13;5016144;28;20505;-45
2023/01/27 13:51:27;;;;;;;;;;;;;;;6.65;67.21;101690.47;5018077;28;20116;-47